createdAt,value
2019-05-17T00:02:17.611Z,95.18
2019-05-17T00:05:06.947Z,95.27
2019-05-17T00:07:53.404Z,95.23
2019-05-17T00:10:41.053Z,95.01
2019-05-17T00:13:29.392Z,94.96
2019-05-17T00:16:17.536Z,94.99
2019-05-17T00:19:07.480Z,95.04
2019-05-17T00:21:53.712Z,95.18
2019-05-17T00:24:41.955Z,95.09
2019-05-17T00:27:29.592Z,95.07
2019-05-17T00:30:17.799Z,94.90
2019-05-17T00:33:07.774Z,94.94
2019-05-17T00:35:53.288Z,95.11
2019-05-17T00:38:48.284Z,95.06
2019-05-17T00:41:29.099Z,95.04
2019-05-17T00:44:17.092Z,94.98
2019-05-17T00:47:06.575Z,94.97
2019-05-17T00:49:52.458Z,94.93
2019-05-17T00:52:39.998Z,95.09
2019-05-17T00:55:27.726Z,95.09
2019-05-17T00:58:17.216Z,94.95
2019-05-17T01:01:03.307Z,94.85
2019-05-17T01:03:50.980Z,94.85
2019-05-17T01:06:38.443Z,94.83
2019-05-17T01:09:27.336Z,94.83
2019-05-17T01:12:16.321Z,95.03
2019-05-17T01:15:02.472Z,94.94
2019-05-17T01:17:50.116Z,94.83
2019-05-17T01:20:37.528Z,94.94
2019-05-17T01:23:27.179Z,94.94
2019-05-17T01:26:13.498Z,94.75
2019-05-17T01:29:01.417Z,94.75
2019-05-17T01:31:48.971Z,94.70
2019-05-17T01:34:37.588Z,94.74
2019-05-17T01:37:27.537Z,94.71
2019-05-17T01:40:13.080Z,94.60
2019-05-17T01:43:01.188Z,94.64
2019-05-17T01:45:48.774Z,94.59
2019-05-17T01:48:36.699Z,94.49
2019-05-17T01:51:26.354Z,94.47
2019-05-17T01:54:12.695Z,94.47
2019-05-17T01:57:00.373Z,94.41
2019-05-17T01:59:48.381Z,94.68
2019-05-17T02:02:38.058Z,94.37
2019-05-17T02:05:27.380Z,94.46
2019-05-17T02:08:14.008Z,94.13
2019-05-17T02:11:01.970Z,94.36
2019-05-17T02:13:49.750Z,94.34
2019-05-17T02:16:37.822Z,94.30
2019-05-17T02:19:26.558Z,94.31
2019-05-17T02:22:16.568Z,94.25
2019-05-17T02:25:01.753Z,94.13
2019-05-17T02:27:49.370Z,94.17
2019-05-17T02:30:37.118Z,94.15
2019-05-17T02:33:25.360Z,94.15
2019-05-17T02:36:14.293Z,94.29
2019-05-17T02:39:03.653Z,94.14
2019-05-17T02:41:49.330Z,94.28
2019-05-17T02:44:37.318Z,94.03
2019-05-17T02:47:24.926Z,94.25
2019-05-17T02:50:13.276Z,94.26
2019-05-17T02:53:04.168Z,94.19
2019-05-17T02:55:48.496Z,94.35
2019-05-17T02:58:36.177Z,94.22
2019-05-17T03:01:23.408Z,94.22
2019-05-17T03:04:13.027Z,94.05
2019-05-17T03:06:59.180Z,94.19
2019-05-17T03:09:47.113Z,94.50
2019-05-17T03:12:35.017Z,94.31
2019-05-17T03:15:23.499Z,94.15
2019-05-17T03:18:13.223Z,94.15
2019-05-17T03:20:58.721Z,94.14
2019-05-17T03:23:46.476Z,94.38
2019-05-17T03:26:34.091Z,94.13
2019-05-17T03:29:22.933Z,94.13
2019-05-17T03:32:16.728Z,94.20
2019-05-17T03:34:58.144Z,94.06
2019-05-17T03:37:45.840Z,94.10
2019-05-17T03:41:01.301Z,94.13
2019-05-17T03:43:22.659Z,94.07
2019-05-17T03:46:08.909Z,94.14
2019-05-17T03:48:56.553Z,94.15
2019-05-17T03:51:44.389Z,94.06
2019-05-17T03:54:32.703Z,94.13
2019-05-17T03:57:23.897Z,94.11
2019-05-17T04:00:08.552Z,94.13
2019-05-17T04:02:56.777Z,94.08
2019-05-17T04:05:44.324Z,94.08
2019-05-17T04:08:33.471Z,94.03
2019-05-17T04:11:31.005Z,94.03
2019-05-17T04:14:08.713Z,93.86
2019-05-17T04:16:57.345Z,93.87
2019-05-17T04:19:44.775Z,93.87
2019-05-17T04:22:33.162Z,93.82
2019-05-17T04:25:23.199Z,93.81
2019-05-17T04:28:08.476Z,93.46
2019-05-17T04:30:56.247Z,93.37
2019-05-17T04:33:44.008Z,93.09
2019-05-17T04:36:32.339Z,93.09
2019-05-17T04:39:22.405Z,93.13
2019-05-17T04:42:06.624Z,92.86
2019-05-17T04:44:54.418Z,92.75
2019-05-17T04:47:44.108Z,92.59
2019-05-17T04:50:29.720Z,91.95
2019-05-17T04:53:17.596Z,91.42
2019-05-17T04:56:05.116Z,89.49
2019-05-17T04:58:54.281Z,90.31
2019-05-17T05:01:43.597Z,90.05
2019-05-17T05:04:29.180Z,90.15
2019-05-17T05:07:16.724Z,89.95
2019-05-17T05:10:04.782Z,89.36
2019-05-17T05:12:52.757Z,88.63
2019-05-17T05:15:43.730Z,88.01
2019-05-17T05:18:28.135Z,87.36
2019-05-17T05:21:16.566Z,85.52
2019-05-17T05:24:04.687Z,85.80
2019-05-17T05:26:52.798Z,85.73
2019-05-17T05:29:41.650Z,84.29
2019-05-17T05:32:28.948Z,84.40
2019-05-17T05:35:16.592Z,84.16
2019-05-17T05:38:07.126Z,83.63
2019-05-17T05:40:52.870Z,82.94
2019-05-17T05:43:41.942Z,81.72
2019-05-17T05:46:28.754Z,81.94
2019-05-17T05:49:16.571Z,80.10
2019-05-17T05:52:04.156Z,80.92
2019-05-17T05:54:52.135Z,81.80
2019-05-17T05:57:42.024Z,80.13
2019-05-17T06:00:27.354Z,82.60
2019-05-17T06:03:15.196Z,80.26
2019-05-17T06:06:03.221Z,77.80
2019-05-17T06:08:52.089Z,76.01
2019-05-17T06:11:41.491Z,75.47
2019-05-17T06:14:27.158Z,73.98
2019-05-17T06:17:15.588Z,74.00
2019-05-17T06:20:03.187Z,73.76
2019-05-17T06:22:51.843Z,71.24
2019-05-17T06:25:39.140Z,71.37
2019-05-17T06:28:28.070Z,71.31
2019-05-17T06:31:15.770Z,72.55
2019-05-17T06:34:03.959Z,71.42
2019-05-17T06:36:52.776Z,71.11
2019-05-17T06:39:41.828Z,70.66
2019-05-17T06:42:39.325Z,70.42
2019-05-17T06:45:15.185Z,69.76
2019-05-17T06:48:02.797Z,68.67
2019-05-17T06:50:51.940Z,69.39
2019-05-17T06:53:37.800Z,69.39
2019-05-17T06:56:25.640Z,69.54
2019-05-17T06:59:15.908Z,69.58
2019-05-17T07:02:03.632Z,68.86
2019-05-17T07:04:51.944Z,68.87
2019-05-17T07:07:40.582Z,68.87
2019-05-17T07:10:30.178Z,68.96
2019-05-17T07:13:16.847Z,69.98
2019-05-17T07:16:04.858Z,70.62
2019-05-17T07:18:52.399Z,70.86
2019-05-17T07:21:40.591Z,71.03
2019-05-17T07:24:30.001Z,70.65
2019-05-17T07:27:16.700Z,69.57
2019-05-17T07:30:05.346Z,67.92
2019-05-17T07:32:53.207Z,68.81
2019-05-17T07:35:41.064Z,68.51
2019-05-17T07:38:30.207Z,67.89
2019-05-17T07:41:17.118Z,67.48
2019-05-17T07:44:04.928Z,67.60
2019-05-17T07:46:52.680Z,67.78
2019-05-17T07:49:40.924Z,66.48
2019-05-17T07:52:29.959Z,65.79
2019-05-17T07:55:16.124Z,65.35
2019-05-17T07:58:03.802Z,64.78
2019-05-17T08:00:51.684Z,64.89
2019-05-17T08:03:40.530Z,64.70
2019-05-17T08:06:30.359Z,63.83
2019-05-17T08:09:15.472Z,64.58
2019-05-17T08:12:03.372Z,64.52
2019-05-17T08:14:51.242Z,63.67
2019-05-17T08:17:39.657Z,63.76
2019-05-17T08:20:29.824Z,64.54
2019-05-17T08:23:15.047Z,63.21
2019-05-17T08:26:02.579Z,62.37
2019-05-17T08:28:50.880Z,62.32
2019-05-17T08:31:40.424Z,61.68
2019-05-17T08:34:28.927Z,61.08
2019-05-17T08:37:14.590Z,60.48
2019-05-17T08:40:02.786Z,58.85
2019-05-17T08:42:50.730Z,60.02
2019-05-17T08:45:40.770Z,60.71
2019-05-17T08:48:26.012Z,60.67
2019-05-17T08:51:14.204Z,59.36
2019-05-17T08:54:01.928Z,57.20
2019-05-17T08:56:50.427Z,55.93
2019-05-17T08:59:40.201Z,56.61
2019-05-17T09:02:25.805Z,56.40
2019-05-17T09:05:13.640Z,57.76
2019-05-17T09:08:01.220Z,57.07
2019-05-17T09:10:50.477Z,56.44
2019-05-17T09:13:37.142Z,55.18
2019-05-17T09:16:25.588Z,56.11
2019-05-17T09:19:13.399Z,55.58
2019-05-17T09:22:01.234Z,55.51
2019-05-17T09:24:50.126Z,56.65
2019-05-17T09:27:39.649Z,55.93
2019-05-17T09:30:25.829Z,55.77
2019-05-17T09:33:13.329Z,55.99
2019-05-17T09:36:01.369Z,55.42
2019-05-17T09:38:49.511Z,55.43
2019-05-17T09:41:39.604Z,54.31
2019-05-17T09:44:25.002Z,54.44
2019-05-17T09:47:12.392Z,54.65
2019-05-17T09:50:00.820Z,54.85
2019-05-17T09:52:49.399Z,54.75
2019-05-17T09:55:36.512Z,55.70
2019-05-17T09:58:24.631Z,55.60
2019-05-17T10:01:13.092Z,55.40
2019-05-17T10:04:01.298Z,55.98
2019-05-17T10:06:51.306Z,55.12
2019-05-17T10:09:39.834Z,54.65
2019-05-17T10:12:25.134Z,54.26
2019-05-17T10:15:13.086Z,55.83
2019-05-17T10:18:00.843Z,56.33
2019-05-17T10:20:50.480Z,55.99
2019-05-17T10:23:36.486Z,55.35
2019-05-17T10:26:24.035Z,54.89
2019-05-17T10:29:12.382Z,54.86
2019-05-17T10:32:00.369Z,53.43
2019-05-17T10:34:49.533Z,53.95
2019-05-17T10:37:36.396Z,53.87
2019-05-17T10:40:24.677Z,53.68
2019-05-17T10:43:12.522Z,53.79
2019-05-17T10:46:00.603Z,53.39
2019-05-17T10:48:50.025Z,53.06
2019-05-17T10:51:36.569Z,52.76
2019-05-17T10:54:24.878Z,53.50
2019-05-17T10:57:12.576Z,53.70
2019-05-17T11:00:00.049Z,53.82
2019-05-17T11:02:50.343Z,52.78
2019-05-17T11:05:36.520Z,51.47
2019-05-17T11:08:24.623Z,49.44
2019-05-17T11:11:12.399Z,48.17
2019-05-17T11:14:00.012Z,48.17
2019-05-17T11:16:48.013Z,47.80
2019-05-17T11:19:36.390Z,48.38
2019-05-17T11:22:24.670Z,50.97
2019-05-17T11:25:12.192Z,52.56
2019-05-17T11:28:00.306Z,54.02
2019-05-17T11:30:47.993Z,54.61
2019-05-17T11:33:36.192Z,55.37
2019-05-17T11:36:23.652Z,56.18
2019-05-17T11:39:11.471Z,56.33
2019-05-17T11:41:59.343Z,56.01
2019-05-17T11:44:47.639Z,55.50
2019-05-17T11:47:35.577Z,54.88
2019-05-17T11:50:23.347Z,54.74
2019-05-17T11:53:11.078Z,55.22
2019-05-17T11:55:58.844Z,53.99
2019-05-17T11:58:46.511Z,53.67
2019-05-17T12:01:33.988Z,53.64
2019-05-17T12:04:22.343Z,53.16
2019-05-17T12:07:09.805Z,52.69
2019-05-17T12:09:57.682Z,52.49
2019-05-17T12:12:45.482Z,52.69
2019-05-17T12:15:44.307Z,51.71
2019-05-17T12:18:20.813Z,51.25
2019-05-17T12:21:08.461Z,50.08
2019-05-17T12:23:56.208Z,50.26
2019-05-17T12:26:47.358Z,51.12
2019-05-17T12:29:31.934Z,51.59
2019-05-17T12:32:19.607Z,51.20
2019-05-17T12:35:07.381Z,49.40
2019-05-17T12:37:55.170Z,47.07
2019-05-17T12:40:42.737Z,44.86
2019-05-17T12:43:30.323Z,44.38
2019-05-17T12:46:18.589Z,45.09
2019-05-17T12:49:06.014Z,44.81
2019-05-17T12:51:54.223Z,45.33
2019-05-17T12:54:42.358Z,46.83
2019-05-17T12:57:30.684Z,47.14
2019-05-17T13:00:18.574Z,48.42
2019-05-17T13:03:06.462Z,49.14
2019-05-17T13:05:53.947Z,49.97
2019-05-17T13:08:42.034Z,49.74
2019-05-17T13:11:30.101Z,49.65
2019-05-17T13:14:18.352Z,49.70
2019-05-17T13:17:06.385Z,49.60
2019-05-17T13:19:54.278Z,50.53
2019-05-17T13:22:42.166Z,51.36
2019-05-17T13:25:30.432Z,52.05
2019-05-17T13:28:18.358Z,51.84
2019-05-17T13:31:06.095Z,52.05
2019-05-17T13:33:53.890Z,52.46
2019-05-17T13:36:41.644Z,52.52
2019-05-17T13:39:29.890Z,51.95
2019-05-17T13:42:18.342Z,51.48
2019-05-17T13:45:06.529Z,51.92
2019-05-17T13:47:54.336Z,51.54
2019-05-17T13:50:42.085Z,50.88
2019-05-17T13:53:30.529Z,51.05
2019-05-17T13:56:18.035Z,51.82
2019-05-17T13:59:05.890Z,52.64
2019-05-17T14:01:53.625Z,53.30
2019-05-17T14:04:41.620Z,54.39
2019-05-17T14:07:29.878Z,53.89
2019-05-17T14:10:27.058Z,53.82
2019-05-17T14:13:05.776Z,53.67
2019-05-17T14:15:53.537Z,53.75
2019-05-17T14:18:41.135Z,53.48
2019-05-17T14:21:29.006Z,53.69
2019-05-17T14:24:17.017Z,54.00
2019-05-17T14:27:04.940Z,54.01
2019-05-17T14:29:53.155Z,54.02
2019-05-17T14:32:40.735Z,54.48
2019-05-17T14:35:28.063Z,55.11
2019-05-17T14:38:16.536Z,55.96
2019-05-17T14:41:07.230Z,55.27
2019-05-17T14:43:52.050Z,55.86
2019-05-17T14:46:39.833Z,55.73
2019-05-17T14:49:27.600Z,55.58
2019-05-17T14:52:15.068Z,55.54
2019-05-17T14:55:03.258Z,55.66
2019-05-17T14:57:51.607Z,55.62
2019-05-17T15:00:39.798Z,55.46
2019-05-17T15:03:27.523Z,54.59
2019-05-17T15:06:15.140Z,54.93
2019-05-17T15:09:03.944Z,54.15
2019-05-17T15:11:51.554Z,54.41
2019-05-17T15:14:39.055Z,53.61
2019-05-17T15:17:26.908Z,53.32
2019-05-17T15:20:14.856Z,52.15
2019-05-17T15:23:02.420Z,51.42
2019-05-17T15:25:49.914Z,51.57
2019-05-17T15:28:37.436Z,52.09
2019-05-17T15:31:25.127Z,52.33
2019-05-17T15:34:13.010Z,52.39
2019-05-17T15:37:00.493Z,53.05
2019-05-17T15:39:48.047Z,53.63
2019-05-17T15:42:44.030Z,54.25
2019-05-17T15:45:23.327Z,54.52
2019-05-17T15:48:11.305Z,54.29
2019-05-17T15:50:59.201Z,54.20
2019-05-17T15:53:46.923Z,53.87
2019-05-17T15:56:34.728Z,53.73
2019-05-17T15:59:23.006Z,53.55
2019-05-17T16:02:10.865Z,53.04
2019-05-17T16:05:01.692Z,53.08
2019-05-17T16:07:49.651Z,52.62
2019-05-17T16:10:37.812Z,52.30
2019-05-17T16:13:25.698Z,52.28
2019-05-17T16:16:13.125Z,52.43
2019-05-17T16:19:00.641Z,52.54
2019-05-17T16:21:48.276Z,52.69
2019-05-17T16:24:36.196Z,52.77
2019-05-17T16:27:24.594Z,53.32
2019-05-17T16:30:12.677Z,53.84
2019-05-17T16:33:00.875Z,54.45
2019-05-17T16:35:48.868Z,54.30
2019-05-17T16:38:36.990Z,54.54
2019-05-17T16:41:24.562Z,54.46
2019-05-17T16:44:14.563Z,54.53
2019-05-17T16:46:59.737Z,54.73
2019-05-17T16:49:47.469Z,54.85
2019-05-17T16:52:35.129Z,54.79
2019-05-17T16:55:25.943Z,54.44
2019-05-17T16:58:10.540Z,54.40
2019-05-17T17:00:58.490Z,54.30
2019-05-17T17:03:46.081Z,54.08
2019-05-17T17:06:34.329Z,53.82
2019-05-17T17:09:21.775Z,54.13
2019-05-17T17:12:10.103Z,54.79
2019-05-17T17:14:57.657Z,55.25
2019-05-17T17:17:45.267Z,55.70
2019-05-17T17:20:32.998Z,55.66
2019-05-17T17:23:20.629Z,55.66
2019-05-17T17:26:11.203Z,56.14
2019-05-17T17:28:59.239Z,56.46
2019-05-17T17:31:47.130Z,56.48
2019-05-17T17:34:35.063Z,56.76
2019-05-17T17:37:22.861Z,57.13
2019-05-17T17:40:11.043Z,57.44
2019-05-17T17:42:58.779Z,57.67
2019-05-17T17:45:46.491Z,58.06
2019-05-17T17:48:33.931Z,57.79
2019-05-17T17:51:22.179Z,57.59
2019-05-17T17:54:10.018Z,57.62
2019-05-17T17:56:57.724Z,57.52
2019-05-17T17:59:45.377Z,57.57
2019-05-17T18:02:33.200Z,57.94
2019-05-17T18:05:20.788Z,58.53
2019-05-17T18:08:09.130Z,59.13
2019-05-17T18:10:57.032Z,59.57
2019-05-17T18:13:44.736Z,59.98
2019-05-17T18:16:32.393Z,60.46
2019-05-17T18:19:20.032Z,61.00
2019-05-17T18:22:07.643Z,61.48
2019-05-17T18:24:55.494Z,61.97
2019-05-17T18:27:43.509Z,62.43
2019-05-17T18:30:31.151Z,62.94
2019-05-17T18:33:18.776Z,63.20
2019-05-17T18:36:06.439Z,63.60
2019-05-17T18:38:54.128Z,64.07
2019-05-17T18:41:41.665Z,64.50
2019-05-17T18:44:29.568Z,65.02
2019-05-17T18:47:17.136Z,65.61
2019-05-17T18:50:04.995Z,66.10
2019-05-17T18:52:52.735Z,66.57
2019-05-17T18:55:40.472Z,67.23
2019-05-17T18:58:28.819Z,67.62
2019-05-17T19:01:16.337Z,67.95
2019-05-17T19:04:04.455Z,68.32
2019-05-17T19:06:52.323Z,68.61
2019-05-17T19:09:39.947Z,68.87
2019-05-17T19:12:27.916Z,69.19
2019-05-17T19:15:15.610Z,69.70
2019-05-17T19:18:03.060Z,69.88
2019-05-17T19:20:50.996Z,70.22
2019-05-17T19:23:38.914Z,70.57
2019-05-17T19:26:26.956Z,70.89
2019-05-17T19:29:14.756Z,71.40
2019-05-17T19:32:02.522Z,71.66
2019-05-17T19:34:50.060Z,72.09
2019-05-17T19:37:37.566Z,72.39
2019-05-17T19:40:26.031Z,72.70
2019-05-17T19:43:14.125Z,72.88
2019-05-17T19:46:01.691Z,73.57
2019-05-17T19:48:49.445Z,73.89
2019-05-17T19:51:37.652Z,74.13
2019-05-17T19:54:25.870Z,74.64
2019-05-17T19:57:13.606Z,74.97
2019-05-17T20:00:01.168Z,75.11
2019-05-17T20:02:48.741Z,75.23
2019-05-17T20:05:36.766Z,75.41
2019-05-17T20:08:24.303Z,75.55
2019-05-17T20:11:11.943Z,75.64
2019-05-17T20:13:59.475Z,75.96
2019-05-17T20:16:47.169Z,75.76
2019-05-17T20:19:34.982Z,75.91
2019-05-17T20:22:22.592Z,75.98
2019-05-17T20:25:10.249Z,76.06
2019-05-17T20:27:58.511Z,76.22
2019-05-17T20:30:46.255Z,76.22
2019-05-17T20:33:34.030Z,76.41
2019-05-17T20:36:22.206Z,76.48
2019-05-17T20:39:10.487Z,76.58
2019-05-17T20:41:58.432Z,76.80
2019-05-17T20:44:46.572Z,76.88
2019-05-17T20:47:34.381Z,77.06
2019-05-17T20:50:22.454Z,77.28
2019-05-17T20:53:18.339Z,77.44
2019-05-17T20:55:57.791Z,77.55
2019-05-17T20:58:45.933Z,77.69
2019-05-17T21:01:33.686Z,77.90
2019-05-17T21:04:21.300Z,77.93
2019-05-17T21:07:09.564Z,78.27
2019-05-17T21:09:57.689Z,78.41
2019-05-17T21:12:45.421Z,78.71
2019-05-17T21:15:45.743Z,79.20
2019-05-17T21:18:20.474Z,79.27
2019-05-17T21:21:08.075Z,79.38
2019-05-17T21:23:56.195Z,79.44
2019-05-17T21:26:43.731Z,79.69
2019-05-17T21:29:31.393Z,79.70
2019-05-17T21:32:19.599Z,79.92
2019-05-17T21:35:07.185Z,80.04
2019-05-17T21:37:55.019Z,80.00
2019-05-17T21:40:42.535Z,80.33
2019-05-17T21:43:30.278Z,80.34
2019-05-17T21:46:18.415Z,80.48
2019-05-17T21:49:05.963Z,80.58
2019-05-17T21:51:54.198Z,80.63
2019-05-17T21:54:42.099Z,80.68
2019-05-17T21:57:29.684Z,80.71
2019-05-17T22:00:56.585Z,80.81
2019-05-17T22:03:44.453Z,80.79
2019-05-17T22:06:32.231Z,80.89
2019-05-17T22:09:20.113Z,81.01
2019-05-17T22:12:09.020Z,81.06
2019-05-17T22:14:56.896Z,81.15
2019-05-17T22:17:44.378Z,81.19
2019-05-17T22:20:32.691Z,81.28
2019-05-17T22:23:20.580Z,81.52
2019-05-17T22:26:08.559Z,81.57
2019-05-17T22:28:56.501Z,81.65
2019-05-17T22:31:44.305Z,81.89
2019-05-17T22:34:31.912Z,81.77
2019-05-17T22:37:19.587Z,81.79
2019-05-17T22:40:07.733Z,81.75
2019-05-17T22:42:55.588Z,81.84
2019-05-17T22:45:44.242Z,81.95
2019-05-17T22:48:31.625Z,82.22
2019-05-17T22:51:19.183Z,82.02
2019-05-17T22:54:07.296Z,82.04
2019-05-17T22:56:55.030Z,82.06
2019-05-17T22:59:42.555Z,82.11
2019-05-17T23:02:30.164Z,82.20
2019-05-17T23:05:25.670Z,82.22
2019-05-17T23:08:05.706Z,82.29
2019-05-17T23:10:53.104Z,82.34
2019-05-17T23:13:40.677Z,82.39
2019-05-17T23:16:28.579Z,82.36
2019-05-17T23:19:16.165Z,82.49
2019-05-17T23:22:04.287Z,82.60
2019-05-17T23:24:52.139Z,82.72
2019-05-17T23:27:40.556Z,82.81
2019-05-17T23:30:28.682Z,82.94
2019-05-17T23:33:16.518Z,82.94
2019-05-17T23:36:04.422Z,83.05
2019-05-17T23:38:52.201Z,82.91
2019-05-17T23:41:39.605Z,83.03
2019-05-17T23:44:27.363Z,83.18
2019-05-17T23:47:14.895Z,83.40
2019-05-17T23:50:02.678Z,83.52
2019-05-17T23:52:50.136Z,83.67
2019-05-17T23:55:37.732Z,83.86
2019-05-17T23:58:25.317Z,83.93
